createdAt,value
2023-04-29T00:00:14.191Z,98.40
2023-04-29T00:02:43.677Z,98.40
2023-04-29T00:05:13.661Z,98.20
2023-04-29T00:07:43.977Z,98.10
2023-04-29T00:10:15.780Z,98.10
2023-04-29T00:12:45.148Z,97.90
2023-04-29T00:15:14.531Z,97.70
2023-04-29T00:17:43.813Z,97.70
2023-04-29T16:33:01.233Z,86.50
2023-04-29T16:35:31.738Z,87.00
2023-04-29T16:38:01.504Z,87.20
2023-04-29T16:40:30.921Z,87.90
2023-04-29T16:43:00.340Z,89.10
2023-04-29T16:45:30.326Z,89.10
2023-04-29T16:48:00.130Z,90.00
2023-04-29T16:50:29.745Z,90.20
2023-04-29T16:52:59.168Z,90.40
2023-04-29T16:55:31.142Z,90.40
2023-04-29T16:58:00.618Z,90.50
2023-04-29T17:00:30.093Z,90.60
2023-04-29T17:03:01.234Z,91.00
2023-04-29T17:05:31.056Z,91.50
2023-04-29T17:08:00.628Z,91.70
2023-04-29T17:10:30.016Z,91.90
2023-04-29T17:12:59.603Z,92.20
2023-04-29T17:15:29.163Z,92.20
2023-04-29T17:17:58.618Z,92.30
2023-04-29T17:20:28.027Z,92.80
2023-04-29T17:22:57.593Z,93.30
2023-04-29T17:25:26.913Z,93.30
2023-04-29T17:27:56.272Z,93.30
2023-04-29T17:30:26.014Z,94.50
2023-04-29T17:32:56.221Z,94.50
2023-04-29T17:35:25.725Z,94.20
2023-04-29T17:37:55.089Z,94.20
2023-04-29T17:40:24.725Z,94.80
2023-04-29T17:42:54.481Z,95.10
2023-04-29T17:45:23.838Z,95.10
2023-04-29T17:47:53.360Z,94.90
2023-04-29T17:50:22.704Z,95.30
2023-04-29T17:52:52.180Z,95.30
2023-04-29T17:55:21.884Z,95.10
2023-04-29T17:57:51.251Z,95.90
2023-04-29T18:00:20.873Z,96.30
2023-04-29T18:02:50.410Z,96.10
2023-04-29T18:05:21.030Z,96.20
2023-04-29T18:07:50.548Z,96.20
2023-04-29T18:10:19.961Z,96.00
2023-04-29T18:12:49.449Z,96.60
2023-04-29T18:15:18.994Z,96.90
2023-04-29T18:17:48.385Z,97.30
2023-04-29T18:20:17.910Z,97.40
2023-04-29T18:22:47.490Z,97.30
2023-04-29T18:25:18.334Z,97.00
2023-04-29T18:27:47.900Z,97.40
2023-04-29T18:30:17.374Z,97.60
2023-04-29T18:32:46.755Z,98.10
2023-04-29T18:35:16.695Z,97.80
2023-04-29T18:37:46.477Z,97.50
2023-04-29T18:40:15.928Z,97.60
2023-04-29T18:42:45.564Z,97.70
2023-04-29T18:45:15.187Z,97.80
2023-04-29T18:47:51.746Z,98.20
2023-04-29T18:50:21.386Z,98.80
2023-04-29T18:52:50.858Z,98.90
2023-04-29T18:55:20.228Z,99.00
2023-04-29T18:57:49.573Z,99.30
2023-04-29T19:00:19.144Z,99.20
2023-04-29T19:02:48.706Z,99.00
2023-04-29T19:05:18.706Z,99.20
2023-04-29T19:07:50.878Z,99.50
2023-04-29T19:10:20.454Z,99.90
2023-04-29T19:12:50.034Z,99.90
2023-04-29T19:15:19.563Z,99.90
2023-04-29T19:17:49.261Z,99.90
2023-04-29T19:20:18.764Z,99.90
2023-04-29T19:22:48.585Z,99.90
2023-04-29T19:25:18.932Z,99.90
2023-04-29T19:27:50.044Z,99.90
2023-04-29T19:30:22.610Z,99.90
2023-04-29T19:32:53.053Z,99.90
2023-04-29T19:35:22.604Z,99.90
2023-04-29T19:37:52.037Z,99.90
2023-04-29T19:40:21.572Z,99.90
2023-04-29T19:42:52.438Z,99.90
2023-04-29T19:45:29.109Z,99.90
2023-04-29T19:48:03.515Z,99.90
2023-04-29T19:50:36.669Z,99.90
2023-04-29T19:53:07.192Z,99.90
2023-04-29T19:55:36.720Z,99.90
2023-04-29T19:58:06.114Z,99.90
2023-04-29T20:00:35.975Z,99.90
2023-04-29T20:03:11.280Z,99.90
2023-04-29T20:08:27.784Z,99.90
2023-04-29T20:11:04.252Z,99.90
2023-04-29T20:13:33.750Z,99.90
2023-04-29T20:16:04.515Z,99.90
2023-04-29T20:18:36.886Z,99.90
2023-04-29T20:21:06.463Z,99.90
2023-04-29T20:23:35.874Z,99.90
2023-04-29T20:26:05.445Z,99.90
2023-04-29T20:28:36.159Z,99.90
2023-04-29T20:31:10.620Z,99.90
2023-04-29T20:33:40.297Z,99.90
2023-04-29T20:36:10.382Z,99.90
2023-04-29T20:38:39.786Z,99.90
2023-04-29T20:41:09.357Z,99.90
2023-04-29T20:43:38.722Z,99.90
2023-04-29T20:46:08.453Z,99.90
2023-04-29T20:48:37.876Z,99.90
2023-04-29T20:51:08.077Z,99.90
2023-04-29T20:53:47.594Z,99.90
2023-04-29T20:56:20.586Z,99.90
2023-04-29T20:58:52.473Z,99.90
2023-04-29T21:01:22.121Z,99.90
2023-04-29T21:03:51.836Z,99.90
2023-04-29T21:06:21.729Z,99.90
2023-04-29T21:08:51.307Z,99.90
2023-04-29T21:11:20.646Z,99.90
2023-04-29T21:13:52.069Z,99.90
2023-04-29T21:16:22.031Z,99.90
2023-04-29T21:18:51.569Z,99.90
2023-04-29T21:21:21.196Z,99.90
2023-04-29T21:23:50.516Z,99.90
2023-04-29T21:26:19.857Z,99.90
2023-04-29T21:28:49.281Z,99.90
2023-04-29T21:31:18.763Z,99.90
2023-04-29T21:33:48.470Z,99.90
2023-04-29T21:36:17.808Z,99.90
2023-04-29T21:38:55.369Z,99.90
2023-04-29T21:44:13.876Z,99.90
2023-04-29T21:46:49.683Z,99.90
2023-04-29T21:52:02.698Z,99.90
2023-04-29T21:54:33.222Z,99.90
2023-04-29T21:57:04.074Z,99.90
2023-04-29T21:59:35.398Z,99.90
2023-04-29T22:02:15.417Z,99.90
2023-04-29T22:04:44.959Z,99.90
2023-04-29T22:07:14.272Z,99.90
2023-04-29T22:09:44.043Z,99.90
2023-04-29T22:12:13.549Z,99.90
2023-04-29T22:14:54.498Z,99.90
2023-04-29T22:17:24.077Z,99.90
2023-04-29T22:19:56.270Z,99.90
2023-04-29T22:22:25.826Z,99.90
2023-04-29T22:24:55.282Z,99.90
2023-04-29T22:27:24.698Z,99.90
2023-04-29T22:29:54.296Z,99.90
2023-04-29T22:32:24.701Z,99.90
2023-04-29T22:35:02.981Z,99.90
2023-04-29T22:37:32.501Z,99.90
2023-04-29T22:40:01.963Z,99.90
2023-04-29T22:42:31.371Z,99.90
2023-04-29T22:45:00.771Z,99.90
2023-04-29T22:47:30.376Z,99.90
2023-04-29T22:49:59.733Z,99.90
2023-04-29T22:52:29.229Z,99.90
2023-04-29T22:54:58.686Z,99.90
2023-04-29T22:57:28.021Z,99.90
2023-04-29T22:59:58.363Z,99.90
2023-04-29T23:02:30.844Z,99.90
2023-04-29T23:05:01.235Z,99.90
2023-04-29T23:07:30.630Z,99.90
2023-04-29T23:10:11.656Z,99.90
2023-04-29T23:12:47.355Z,99.90
2023-04-29T23:18:02.412Z,99.90
2023-04-29T23:20:32.812Z,99.90
2023-04-29T23:23:02.365Z,99.90
2023-04-29T23:25:31.757Z,99.90
2023-04-29T23:28:01.094Z,99.90
2023-04-29T23:30:30.471Z,99.90
2023-04-29T23:33:00.736Z,99.90
2023-04-29T23:35:32.809Z,99.90
2023-04-29T23:38:02.071Z,99.90
2023-04-29T23:40:31.877Z,99.90
2023-04-29T23:43:01.289Z,99.90
2023-04-29T23:45:30.500Z,99.90
2023-04-29T23:48:06.244Z,99.90
2023-04-29T23:50:35.596Z,99.90
2023-04-29T23:53:05.151Z,99.90
2023-04-29T23:55:35.562Z,99.90
2023-04-29T23:58:07.557Z,99.90
